createdAt,value
2022-11-22T00:00:38.468Z,94443.25
2022-11-22T00:03:11.322Z,94431.03
2022-11-22T00:05:44.361Z,94437.53
2022-11-22T00:08:19.170Z,94428.41
2022-11-22T00:10:52.645Z,94432.59
2022-11-22T00:13:25.450Z,94441.75
2022-11-22T00:15:59.962Z,94441.41
2022-11-22T00:18:33.232Z,94435.28
2022-11-22T00:21:07.504Z,94427.31
2022-11-22T00:23:42.033Z,94419.31
2022-11-22T00:26:15.086Z,94425.41
2022-11-22T00:28:47.879Z,94416.63
2022-11-22T00:31:20.983Z,94414.31
2022-11-22T00:33:53.742Z,94421.94
2022-11-22T00:36:26.805Z,94411.25
2022-11-22T00:39:01.074Z,94418.47
2022-11-22T00:41:34.064Z,94419.97
2022-11-22T00:44:07.043Z,94423.00
2022-11-22T00:46:40.045Z,94421.47
2022-11-22T00:49:12.949Z,94421.47
2022-11-22T00:51:45.832Z,94424.53
2022-11-22T00:54:20.128Z,94423.00
2022-11-22T00:56:52.947Z,94426.81
2022-11-22T00:59:25.747Z,94434.47
2022-11-22T01:01:58.606Z,94430.66
2022-11-22T01:04:31.643Z,94434.09
2022-11-22T01:07:04.713Z,94431.84
2022-11-22T01:09:38.933Z,94441.38
2022-11-22T01:12:11.804Z,94444.06
2022-11-22T01:14:44.772Z,94452.84
2022-11-22T01:17:17.908Z,94464.28
2022-11-22T01:19:50.711Z,94471.91
2022-11-22T01:22:23.588Z,94460.09
2022-11-22T01:24:58.238Z,94471.94
2022-11-22T01:27:31.030Z,94465.88
2022-11-22T01:30:04.001Z,94473.13
2022-11-22T01:32:36.818Z,94477.34
2022-11-22T01:35:10.788Z,94489.19
2022-11-22T01:37:43.673Z,94491.50
2022-11-22T01:40:17.942Z,94488.47
2022-11-22T01:42:53.818Z,94495.78
2022-11-22T01:45:43.499Z,94485.09
2022-11-22T01:48:23.075Z,94489.72
2022-11-22T01:51:02.710Z,94498.50
2022-11-22T01:53:38.560Z,94495.06
2022-11-22T01:56:15.618Z,94494.28
2022-11-22T01:58:54.419Z,94492.75
2022-11-22T02:01:28.631Z,94496.91
2022-11-22T02:04:03.734Z,94501.13
2022-11-22T02:06:43.579Z,94499.22
2022-11-22T02:09:17.864Z,94491.97
2022-11-22T02:11:55.040Z,94490.06
2022-11-22T02:14:29.363Z,94485.09
2022-11-22T02:17:02.159Z,94488.47
2022-11-22T02:19:41.927Z,94475.50
2022-11-22T02:22:30.630Z,94469.75
2022-11-22T02:25:10.115Z,94468.59
2022-11-22T02:27:44.721Z,94470.88
2022-11-22T02:30:18.974Z,94475.03
2022-11-22T02:32:51.947Z,94493.34
2022-11-22T02:35:27.234Z,94503.22
2022-11-22T02:38:03.038Z,94505.84
2022-11-22T02:40:39.319Z,94502.78
2022-11-22T02:43:16.630Z,94501.22
2022-11-22T02:45:49.487Z,94508.81
2022-11-22T02:48:22.713Z,94509.19
2022-11-22T02:50:55.550Z,94509.94
2022-11-22T02:53:30.963Z,94520.59
2022-11-22T02:56:03.834Z,94520.25
2022-11-22T02:58:38.163Z,94515.31
2022-11-22T03:01:11.317Z,94515.69
2022-11-22T03:03:44.148Z,94515.69
2022-11-22T03:06:17.089Z,94513.00
2022-11-22T03:08:55.870Z,94507.66
2022-11-22T03:11:29.544Z,94510.72
2022-11-22T03:14:03.693Z,94512.25
2022-11-22T03:16:36.506Z,94505.38
2022-11-22T03:19:09.710Z,94497.38
2022-11-22T03:21:43.945Z,94498.53
2022-11-22T03:24:16.903Z,94502.69
2022-11-22T03:26:50.868Z,94506.16
2022-11-22T03:29:25.413Z,94508.03
2022-11-22T03:31:58.228Z,94497.75
2022-11-22T03:34:31.016Z,94501.56
2022-11-22T03:37:03.864Z,94504.22
2022-11-22T03:39:36.753Z,94496.56
2022-11-22T03:42:09.944Z,94495.81
2022-11-22T03:44:44.112Z,94501.56
2022-11-22T03:47:16.958Z,94493.13
2022-11-22T03:49:49.769Z,94496.22
2022-11-22T03:52:22.620Z,94497.75
2022-11-22T03:54:55.397Z,94501.97
2022-11-22T03:57:28.481Z,94503.47
2022-11-22T04:00:02.706Z,94509.22
2022-11-22T04:02:35.546Z,94501.56
2022-11-22T04:05:09.109Z,94496.28
2022-11-22T04:07:42.075Z,94496.63
2022-11-22T04:10:17.757Z,94500.50
2022-11-22T04:12:57.363Z,94495.50
2022-11-22T04:15:30.890Z,94508.50
2022-11-22T04:18:04.104Z,94508.50
2022-11-22T04:20:54.597Z,94518.03
2022-11-22T04:23:33.555Z,94522.63
2022-11-22T04:26:05.732Z,94522.97
2022-11-22T04:29:08.044Z,94525.28
2022-11-22T04:31:50.207Z,94529.09
2022-11-22T04:34:23.260Z,94523.38
2022-11-22T04:36:55.982Z,94532.16
2022-11-22T04:39:29.119Z,94534.84
2022-11-22T04:42:19.991Z,94516.50
2022-11-22T04:44:52.894Z,94518.78
2022-11-22T04:47:49.993Z,94524.53
2022-11-22T04:50:40.523Z,94530.22
2022-11-22T04:53:13.763Z,94528.69
2022-11-22T04:55:48.318Z,94535.91
2022-11-22T04:58:21.517Z,94537.47
2022-11-22T05:00:54.818Z,94523.69
2022-11-22T05:03:29.171Z,94534.03
2022-11-22T05:06:02.856Z,94538.22
2022-11-22T05:08:35.624Z,94543.53
2022-11-22T05:11:08.482Z,94538.19
2022-11-22T05:13:43.845Z,94538.56
2022-11-22T05:16:16.991Z,94543.50
2022-11-22T05:19:00.202Z,94541.97
2022-11-22T05:21:35.690Z,94539.25
2022-11-22T05:24:08.039Z,94551.03
2022-11-22T05:26:41.972Z,94543.75
2022-11-22T05:29:14.743Z,94538.38
2022-11-22T05:31:51.319Z,94551.69
2022-11-22T05:34:25.909Z,94556.59
2022-11-22T05:36:58.830Z,94567.25
2022-11-22T05:39:31.960Z,94553.84
2022-11-22T05:42:06.026Z,94569.47
2022-11-22T05:44:38.829Z,94573.63
2022-11-22T05:47:11.841Z,94582.38
2022-11-22T05:49:46.197Z,94584.63
2022-11-22T05:52:19.041Z,94594.88
2022-11-22T05:54:51.861Z,94595.25
2022-11-22T05:57:25.252Z,94601.38
2022-11-22T05:59:58.033Z,94602.13
2022-11-22T06:02:32.444Z,94605.19
2022-11-22T06:05:07.358Z,94608.63
2022-11-22T06:07:40.329Z,94606.72
2022-11-22T06:10:13.135Z,94616.63
2022-11-22T06:12:46.243Z,94617.03
2022-11-22T06:15:19.069Z,94624.69
2022-11-22T06:17:51.875Z,94631.59
2022-11-22T06:20:26.081Z,94637.78
2022-11-22T06:22:59.324Z,94635.88
2022-11-22T06:25:33.357Z,94643.09
2022-11-22T06:28:06.166Z,94635.09
2022-11-22T06:30:39.040Z,94643.09
2022-11-22T06:33:11.932Z,94643.88
2022-11-22T06:35:46.124Z,94643.09
2022-11-22T06:38:19.114Z,94659.88
2022-11-22T06:40:51.900Z,94649.56
2022-11-22T06:43:24.709Z,94654.91
2022-11-22T06:45:57.853Z,94664.47
2022-11-22T06:48:32.010Z,94663.31
2022-11-22T06:51:08.166Z,94670.59
2022-11-22T06:53:49.345Z,94675.16
2022-11-22T06:56:24.283Z,94679.78
2022-11-22T06:58:57.837Z,94679.44
2022-11-22T07:01:31.759Z,94688.22
2022-11-22T07:04:05.628Z,94693.19
2022-11-22T07:06:40.179Z,94697.41
2022-11-22T07:09:13.323Z,94706.16
2022-11-22T07:11:46.104Z,94704.25
2022-11-22T07:14:18.980Z,94709.25
2022-11-22T07:16:51.770Z,94702.00
2022-11-22T07:19:24.589Z,94698.19
2022-11-22T07:21:58.760Z,94710.06
2022-11-22T07:24:31.543Z,94703.59
2022-11-22T07:27:04.461Z,94707.81
2022-11-22T07:29:37.411Z,94711.22
2022-11-22T07:32:10.230Z,94718.09
2022-11-22T07:34:43.034Z,94716.22
2022-11-22T07:37:17.240Z,94716.63
2022-11-22T07:39:50.072Z,94726.88
2022-11-22T07:42:26.144Z,94727.31
2022-11-22T07:44:59.386Z,94724.63
2022-11-22T07:47:33.222Z,94723.50
2022-11-22T07:50:07.271Z,94727.34
2022-11-22T07:52:41.452Z,94729.66
2022-11-22T07:55:14.552Z,94725.81
2022-11-22T07:57:47.339Z,94726.22
2022-11-22T08:00:20.903Z,94724.69
2022-11-22T08:02:53.945Z,94730.81
2022-11-22T08:05:27.589Z,94723.91
2022-11-22T08:08:01.867Z,94732.31
2022-11-22T08:10:34.909Z,94731.97
2022-11-22T08:13:07.769Z,94730.47
2022-11-22T08:15:40.587Z,94725.19
2022-11-22T08:18:13.373Z,94719.88
2022-11-22T08:20:46.193Z,94721.84
2022-11-22T08:23:20.366Z,94727.63
2022-11-22T08:25:53.214Z,94732.25
2022-11-22T08:28:26.067Z,94728.09
2022-11-22T08:31:04.113Z,94722.41
2022-11-22T08:33:37.204Z,94723.59
2022-11-22T08:36:10.205Z,94725.53
2022-11-22T08:38:44.571Z,94717.91
2022-11-22T08:41:17.455Z,94720.66
2022-11-22T08:43:51.389Z,94718.34
2022-11-22T08:46:24.370Z,94719.53
2022-11-22T08:48:57.158Z,94717.69
2022-11-22T08:51:29.968Z,94723.47
2022-11-22T08:54:04.227Z,94731.53
2022-11-22T08:56:37.029Z,94737.31
2022-11-22T08:59:09.851Z,94732.00
2022-11-22T09:01:42.944Z,94745.09
2022-11-22T09:04:15.804Z,94742.78
2022-11-22T09:09:43.187Z,94738.72
2022-11-22T09:12:16.196Z,94742.22
2022-11-22T09:14:49.117Z,94746.44
2022-11-22T09:17:22.121Z,94751.78
2022-11-22T09:19:54.876Z,94739.59
2022-11-22T09:22:28.708Z,94753.75
2022-11-22T09:25:03.333Z,94749.97
2022-11-22T09:27:36.922Z,94753.41
2022-11-22T09:30:10.606Z,94757.25
2022-11-22T09:32:44.592Z,94761.88
2022-11-22T09:35:20.202Z,94765.72
2022-11-22T09:37:53.495Z,94769.97
2022-11-22T09:40:27.918Z,94763.84
2022-11-22T09:43:18.321Z,94770.06
2022-11-22T09:46:09.912Z,94773.94
2022-11-22T09:49:13.349Z,94779.31
2022-11-22T09:51:53.759Z,94779.38
2022-11-22T09:54:30.155Z,94786.66
2022-11-22T09:57:10.230Z,94793.97
2022-11-22T09:59:47.475Z,94798.97
2022-11-22T10:02:26.809Z,94796.31
2022-11-22T10:05:03.484Z,94802.09
2022-11-22T10:07:40.486Z,94793.28
2022-11-22T10:10:18.735Z,94803.69
2022-11-22T10:13:04.952Z,94809.81
2022-11-22T10:15:45.996Z,94807.94
2022-11-22T10:18:25.116Z,94799.53
2022-11-22T10:20:57.999Z,94800.31
2022-11-22T10:23:32.781Z,94803.38
2022-11-22T10:26:13.151Z,94796.88
2022-11-22T10:28:57.615Z,94794.19
2022-11-22T10:31:36.994Z,94795.75
2022-11-22T10:34:21.339Z,94803.41
2022-11-22T10:37:01.966Z,94804.91
2022-11-22T10:39:56.806Z,94794.25
2022-11-22T10:42:49.742Z,94796.16
2022-11-22T10:45:30.804Z,94793.88
2022-11-22T10:48:17.878Z,94791.19
2022-11-22T10:51:01.117Z,94786.22
2022-11-22T10:53:48.153Z,94790.06
2022-11-22T10:56:28.108Z,94789.69
2022-11-22T10:59:25.859Z,94792.41
2022-11-22T11:02:16.389Z,94795.47
2022-11-22T11:04:51.131Z,94801.22
2022-11-22T11:07:25.927Z,94800.88
2022-11-22T11:10:11.524Z,94797.44
2022-11-22T11:12:51.125Z,94799.03
2022-11-22T11:15:29.256Z,94795.56
2022-11-22T11:18:07.204Z,94794.84
2022-11-22T11:20:43.739Z,94801.78
2022-11-22T11:23:16.844Z,94792.59
2022-11-22T11:25:53.988Z,94782.69
2022-11-22T11:28:30.095Z,94789.22
2022-11-22T11:31:09.050Z,94775.44
2022-11-22T11:33:45.856Z,94776.22
2022-11-22T11:36:22.096Z,94773.94
2022-11-22T11:38:56.291Z,94777.78
2022-11-22T11:41:31.410Z,94773.94
2022-11-22T11:44:05.792Z,94770.13
2022-11-22T11:46:46.696Z,94767.88
2022-11-22T11:49:25.713Z,94767.88
2022-11-22T11:52:00.616Z,94768.28
2022-11-22T11:54:43.061Z,94760.25
2022-11-22T11:57:20.158Z,94758.72
2022-11-22T11:59:55.401Z,94757.22
2022-11-22T12:02:34.188Z,94764.84
2022-11-22T12:05:27.748Z,94753.75
2022-11-22T12:08:02.049Z,94746.84
2022-11-22T12:10:42.355Z,94744.94
2022-11-22T12:13:24.727Z,94744.94
2022-11-22T12:16:02.681Z,94738.03
2022-11-22T12:18:40.268Z,94737.66
2022-11-22T12:21:26.258Z,94738.81
2022-11-22T12:24:26.887Z,94734.19
2022-11-22T12:26:57.408Z,94721.53
2022-11-22T12:29:31.571Z,94718.84
2022-11-22T12:32:08.795Z,94720.41
2022-11-22T12:34:53.028Z,94710.81
2022-11-22T12:37:32.480Z,94709.31
2022-11-22T12:40:16.151Z,94711.59
2022-11-22T12:42:51.565Z,94704.69
2022-11-22T12:45:31.880Z,94690.91
2022-11-22T12:48:08.419Z,94687.84
2022-11-22T12:50:45.464Z,94695.09
2022-11-22T12:53:24.591Z,94698.56
2022-11-22T12:56:05.730Z,94695.88
2022-11-22T12:58:43.815Z,94696.66
2022-11-22T13:01:21.830Z,94703.16
2022-11-22T13:04:01.126Z,94700.84
2022-11-22T13:06:39.086Z,94706.59
2022-11-22T13:09:19.134Z,94708.91
2022-11-22T13:11:58.716Z,94714.28
2022-11-22T13:14:35.147Z,94715.81
2022-11-22T13:17:09.176Z,94720.41
2022-11-22T13:19:49.248Z,94720.41
2022-11-22T13:22:29.696Z,94719.28
2022-11-22T13:25:22.857Z,94722.72
2022-11-22T13:27:59.334Z,94726.94
2022-11-22T13:30:35.115Z,94727.66
2022-11-22T13:33:24.460Z,94730.34
2022-11-22T13:36:25.807Z,94731.09
2022-11-22T13:39:01.244Z,94730.34
2022-11-22T13:41:45.263Z,94735.31
2022-11-22T13:44:26.947Z,94729.16
2022-11-22T13:47:02.417Z,94718.06
2022-11-22T13:49:48.194Z,94721.09
2022-11-22T13:52:31.062Z,94727.25
2022-11-22T13:55:27.114Z,94722.25
2022-11-22T13:58:51.141Z,94721.88
2022-11-22T14:02:02.659Z,94724.19
2022-11-22T14:04:43.706Z,94721.91
2022-11-22T14:07:40.686Z,94728.41
2022-11-22T14:10:31.262Z,94721.13
2022-11-22T14:13:34.972Z,94723.03
2022-11-22T14:16:22.963Z,94734.53
2022-11-22T14:19:07.907Z,94721.50
2022-11-22T14:22:00.705Z,94726.88
2022-11-22T14:24:54.123Z,94721.13
2022-11-22T14:27:38.779Z,94723.38
2022-11-22T14:30:18.585Z,94719.13
2022-11-22T14:33:16.441Z,94715.66
2022-11-22T14:36:16.988Z,94724.41
2022-11-22T14:38:49.776Z,94719.03
2022-11-22T14:41:46.762Z,94715.53
2022-11-22T14:44:20.929Z,94719.72
2022-11-22T14:46:58.405Z,94726.59
2022-11-22T14:49:43.121Z,94730.81
2022-11-22T14:52:22.142Z,94729.59
2022-11-22T14:54:59.381Z,94734.19
2022-11-22T14:57:35.447Z,94721.53
2022-11-22T15:00:18.136Z,94734.53
2022-11-22T15:03:17.395Z,94735.28
2022-11-22T15:09:16.279Z,94734.13
2022-11-22T15:09:46.727Z,94731.41
2022-11-22T15:12:41.494Z,94743.66
2022-11-22T15:57:33.585Z,94805.88
2022-11-22T16:00:11.610Z,94807.38
2022-11-22T16:02:50.318Z,94810.78
2022-11-22T16:06:06.430Z,94813.06
2022-11-22T16:08:31.080Z,94813.41
2022-11-22T16:11:05.912Z,94817.59
2022-11-22T16:13:40.109Z,94820.63
2022-11-22T16:16:21.680Z,94818.72
2022-11-22T16:18:54.504Z,94821.78
2022-11-22T16:21:30.397Z,94824.81
2022-11-22T16:24:12.750Z,94829.81
2022-11-22T16:26:56.154Z,94829.81
2022-11-22T16:29:34.084Z,94828.25
2022-11-22T16:32:12.115Z,94834.38
2022-11-22T16:34:44.939Z,94822.50
2022-11-22T16:37:30.645Z,94833.25
2022-11-22T16:40:06.824Z,94833.19
2022-11-22T16:42:40.723Z,94834.75
2022-11-22T16:45:19.102Z,94840.09
2022-11-22T16:48:16.267Z,94843.53
2022-11-22T16:50:50.980Z,94843.94
2022-11-22T16:53:23.981Z,94838.19
2022-11-22T16:55:56.848Z,94842.78
2022-11-22T16:58:30.039Z,94844.66
2022-11-22T17:01:04.584Z,94842.34
2022-11-22T17:03:39.953Z,94840.47
2022-11-22T17:06:18.379Z,94839.28
2022-11-22T17:08:53.544Z,94846.13
2022-11-22T17:11:28.007Z,94849.19
2022-11-22T17:14:01.605Z,94838.06
2022-11-22T17:16:35.886Z,94831.59
2022-11-22T17:19:30.386Z,94833.06
2022-11-22T17:22:01.886Z,94833.44
2022-11-22T17:24:35.597Z,94841.47
2022-11-22T17:27:08.418Z,94847.19
2022-11-22T17:29:56.884Z,94851.00
2022-11-22T17:32:31.471Z,94848.66
2022-11-22T17:35:04.297Z,94857.81
2022-11-22T17:37:37.101Z,94860.84
2022-11-22T17:40:11.959Z,94864.28
2022-11-22T17:42:44.730Z,94859.66
2022-11-22T17:45:17.592Z,94858.88
2022-11-22T17:47:52.813Z,94868.81
2022-11-22T17:50:25.641Z,94867.66
2022-11-22T17:52:58.415Z,94875.66
2022-11-22T17:55:48.161Z,94879.81
2022-11-22T17:58:24.302Z,94880.59
2022-11-22T18:01:04.402Z,94885.94
2022-11-22T18:03:39.128Z,94884.75
2022-11-22T18:06:13.080Z,94888.94
2022-11-22T18:08:47.380Z,94900.41
2022-11-22T18:11:20.413Z,94897.31
2022-11-22T18:13:53.432Z,94895.78
2022-11-22T18:16:28.572Z,94905.69
2022-11-22T18:19:03.087Z,94900.34
2022-11-22T18:21:35.905Z,94904.91
2022-11-22T18:24:09.511Z,94906.81
2022-11-22T18:26:42.625Z,94917.16
2022-11-22T18:32:08.581Z,94921.72
2022-11-22T18:34:42.906Z,94913.28
2022-11-22T18:37:15.877Z,94923.22
2022-11-22T18:39:48.725Z,94916.28
2022-11-22T18:42:23.491Z,94922.75
2022-11-22T18:44:56.481Z,94913.91
2022-11-22T18:47:29.394Z,94926.13
2022-11-22T18:50:04.845Z,94923.44
2022-11-22T18:52:39.056Z,94913.03
2022-11-22T18:55:15.719Z,94915.69
2022-11-22T18:57:52.218Z,94923.28
2022-11-22T19:00:25.173Z,94915.94
2022-11-22T19:02:59.455Z,94931.91
2022-11-22T19:05:33.652Z,94928.78
2022-11-22T19:08:08.988Z,94933.63
2022-11-22T19:10:43.900Z,94923.59
2022-11-22T19:13:17.104Z,94928.13
2022-11-22T19:15:50.623Z,94933.06
2022-11-22T19:18:23.493Z,94931.88
2022-11-22T19:20:57.666Z,94927.22
2022-11-22T19:23:31.528Z,94927.19
2022-11-22T19:26:04.859Z,94933.97
2022-11-22T19:28:37.872Z,94938.88
2022-11-22T19:31:13.230Z,94936.47
2022-11-22T19:33:46.995Z,94939.88
2022-11-22T19:36:25.323Z,94936.00
2022-11-22T19:39:05.423Z,94945.88
2022-11-22T19:41:38.465Z,94937.78
2022-11-22T19:44:12.317Z,94950.38
2022-11-22T19:46:45.144Z,94946.50
2022-11-22T19:49:18.137Z,94940.75
2022-11-22T19:51:52.320Z,94941.88
2022-11-22T19:54:25.237Z,94943.00
2022-11-22T19:56:58.016Z,94939.91
2022-11-22T19:59:33.718Z,94950.25
2022-11-22T20:02:07.342Z,94943.34
2022-11-22T20:04:40.250Z,94946.09
2022-11-22T20:07:14.468Z,94947.63
2022-11-22T20:09:47.288Z,94952.59
2022-11-22T20:12:20.055Z,94952.25
2022-11-22T20:14:52.845Z,94950.78
2022-11-22T20:17:25.662Z,94958.06
2022-11-22T20:19:58.520Z,94964.59
2022-11-22T20:22:32.766Z,94967.34
2022-11-22T20:25:06.419Z,94960.88
2022-11-22T20:27:39.282Z,94963.59
2022-11-22T20:30:13.069Z,94962.13
2022-11-22T20:32:45.997Z,94956.78
2022-11-22T20:35:18.895Z,94953.78
2022-11-22T20:37:53.126Z,94967.16
2022-11-22T20:40:26.027Z,94962.59
2022-11-22T20:42:58.818Z,94963.03
2022-11-22T20:45:32.534Z,94975.25
2022-11-22T20:48:05.903Z,94969.13
2022-11-22T20:50:38.740Z,94977.56
2022-11-22T20:53:12.932Z,94977.91
2022-11-22T20:55:45.803Z,94985.56
2022-11-22T20:58:18.899Z,94979.03
2022-11-22T21:00:51.824Z,94979.03
2022-11-22T21:03:26.021Z,94981.28
2022-11-22T21:06:01.125Z,94987.75
2022-11-22T21:08:35.390Z,94980.84
2022-11-22T21:11:10.723Z,94990.78
2022-11-22T21:13:44.809Z,94994.94
2022-11-22T21:16:24.473Z,94993.03
2022-11-22T21:18:59.513Z,94995.72
2022-11-22T21:21:33.527Z,94996.06
2022-11-22T21:24:08.857Z,94999.16
2022-11-22T21:26:41.780Z,95000.63
2022-11-22T21:29:16.663Z,95002.16
2022-11-22T21:31:49.703Z,95003.72
2022-11-22T21:34:22.538Z,95003.72
2022-11-22T21:36:55.386Z,95007.56
2022-11-22T21:39:29.629Z,95004.88
2022-11-22T21:42:02.637Z,95003.75
2022-11-22T21:44:35.419Z,95011.00
2022-11-22T21:47:08.246Z,95007.94
2022-11-22T21:49:41.119Z,95007.16
2022-11-22T21:52:14.223Z,95009.47
2022-11-22T21:54:48.780Z,95010.59
2022-11-22T21:57:21.707Z,95018.63
2022-11-22T21:59:54.496Z,95017.06
2022-11-22T22:02:29.614Z,95014.41
2022-11-22T22:05:02.600Z,95023.19
2022-11-22T22:07:52.293Z,95025.06
2022-11-22T22:10:27.038Z,95019.38
2022-11-22T22:12:59.959Z,95018.63
2022-11-22T22:15:32.780Z,95020.16
2022-11-22T22:18:05.648Z,95011.38
2022-11-22T22:20:38.436Z,95008.34
2022-11-22T22:23:11.280Z,95014.03
2022-11-22T22:25:45.479Z,95018.22
2022-11-22T22:28:18.538Z,95016.72
2022-11-22T22:30:51.307Z,95015.94
2022-11-22T22:33:24.151Z,95019.72
2022-11-22T22:35:57.767Z,95015.53
2022-11-22T22:38:31.523Z,95015.53
2022-11-22T22:41:06.619Z,95025.06
2022-11-22T22:43:41.841Z,95021.22
2022-11-22T22:46:16.609Z,95023.53
2022-11-22T22:48:50.716Z,95021.97
2022-11-22T22:51:32.027Z,95026.97
2022-11-22T22:54:06.078Z,95021.97
2022-11-22T22:56:41.547Z,95021.63
2022-11-22T22:59:14.392Z,95018.53
2022-11-22T23:01:47.213Z,95018.53
2022-11-22T23:04:20.046Z,95021.56
2022-11-22T23:06:52.956Z,95022.31
2022-11-22T23:09:25.767Z,95019.22
2022-11-22T23:12:11.745Z,95021.91
2022-11-22T23:14:44.592Z,95028.38
2022-11-22T23:17:17.424Z,95021.50
2022-11-22T23:19:50.246Z,95025.72
2022-11-22T23:22:25.910Z,95026.84
2022-11-22T23:24:59.019Z,95030.28
2022-11-22T23:27:33.244Z,95027.63
2022-11-22T23:30:07.262Z,95026.84
2022-11-22T23:32:40.066Z,95028.38
2022-11-22T23:35:12.889Z,95029.91
2022-11-22T23:37:45.646Z,95027.63
2022-11-22T23:40:18.453Z,95024.56
2022-11-22T23:42:52.600Z,95029.91
2022-11-22T23:45:25.488Z,95024.56
2022-11-22T23:47:58.299Z,95028.38
2022-11-22T23:50:36.073Z,95029.13
2022-11-22T23:53:10.280Z,95030.28
2022-11-22T23:55:43.342Z,95022.63
2022-11-22T23:58:17.487Z,95029.09
